Historyczne dane pomiarowe

Dodano dane terminowe – wersja testowa.

Dane z okresu 1951-2019

Wersja bazy: 1.34 [2019-03-16, lista zmian], aktualizacja planowana na 2019-04-15

Dane meteo z obszaru Polski uzyskane na podstawie danych udostępnionych przez Instytut Meteorologii i Gospodarki Wodnej – Państwowy Instytut Badawczy.

 

Wybierz Datę:    

       

TemperaturaWilgotnośćZachmurzenieWiatrCiśnienieWidzialnośćZjawiska
 Data    tng td wb rh cc ccl cl cm ch dir g1 g2 mslp ppp      
1999-07-28 00:00:00 8.4--- 8.4 8.4100wxwx6wx--- 803.9 5.0---wxw1
1999-07-28 01:00:00 8.4--- 8.4 8.4100wxwx5wx--- 803.7----wxw1
1999-07-28 02:00:00 8.3--- 8.3 8.3100wxwx5wx--- 803.6----wxw1
1999-07-28 03:00:00 8.6--- 8.6 8.6100wxwx5wx--- 803.6----wxw1
1999-07-28 04:00:00 8.4--- 8.4 8.4100wxwx5wx--- 803.6----wxw1
1999-07-28 05:00:00 8.5--- 8.5 8.5100wxwx4wx--- 803.5----wxw1
1999-07-28 06:00:00 8.3--- 8.3 8.3100wxwx6wx--- 803.6 3.5---wxw1
1999-07-28 07:00:00 8.4--- 8.4 8.4100wxwx5wx--- 803.8----wxw1
1999-07-28 08:00:00 8.4--- 8.4 8.4100wxwx4wx--- 803.8----wxw1
1999-07-28 09:00:00 8.5--- 8.5 8.5100wxwx5wx--- 803.8----wxw1
1999-07-28 10:00:00 8.7--- 8.6 8.7100wxwx4wx--- 803.9----wxw1
1999-07-28 11:00:00 8.5--- 8.5 8.5100wxwx5wx--- 803.9----wxw1
1999-07-28 12:00:00 8.8--- 8.8 8.8100wxwx4wx--- 804.1 3.7---wxw1
1999-07-28 13:00:00 8.8--- 8.6 8.799wxwx5wx--- 804.1----wxw1
1999-07-28 14:00:00 8.7--- 8.6 8.7100wxwx6wx--- 804.0----wxw1
1999-07-28 15:00:00 8.5--- 8.5 8.5100wxwx5wx--- 803.9----wxw1
1999-07-28 16:00:00 8.3--- 8.1 8.299wxwx6wx--- 803.8----wxw1
1999-07-28 17:00:00 7.6--- 7.6 7.6100wxwx6wx--- 803.7----wxw1
1999-07-28 18:00:00 7.9--- 7.8 7.9100wxwx6wx--- 803.8 0.0---wxw1
1999-07-28 19:00:00 7.3--- 7.3 7.3100wxwx7wx--- 803.9----wxw1
1999-07-28 20:00:00 6.8--- 6.8 6.8100wxwx5wx--- 804.0----wxw1
1999-07-28 21:00:00 5.6--- 5.0 5.395wxwxwxwxwx8wx--- 803.8----wx
1999-07-28 22:00:00 5.8--- 5.8 5.8100wxwxwx6wx--- 803.8----wx
1999-07-28 23:00:00 5.8--- 5.8 5.8100wxwxwx7wx--- 803.6----wxw1

 

Źródłem pochodzenia danych jest Instytut Meteorologii i Gospodarki Wodnej – Państwowy Instytut Badawczy. Dane Instytutu Meteorologii i Gospodarki Wodnej – Państwowego Instytutu Badawczego zostały przetworzone.

Dane źródłowe można odnaleźć na stronie https://dane.imgw.pl